createdAt,value
2022-08-12T00:00:47.126Z,99881.38
2022-08-12T00:03:31.954Z,99871.72
2022-08-12T00:06:17.525Z,99873.38
2022-08-12T00:09:02.408Z,99871.22
2022-08-12T00:11:47.336Z,99875.97
2022-08-12T00:14:32.757Z,99877.28
2022-08-12T00:17:18.156Z,99872.94
2022-08-12T00:20:03.985Z,99866.78
2022-08-12T00:22:53.100Z,99867.97
2022-08-12T00:26:20.929Z,99868.09
2022-08-12T00:29:03.970Z,99872.91
2022-08-12T00:31:49.229Z,99863.00
2022-08-12T00:34:35.118Z,99872.44
2022-08-12T00:37:20.320Z,99873.91
2022-08-12T00:40:10.730Z,99872.97
2022-08-12T00:42:40.891Z,99872.84
2022-08-12T00:45:08.671Z,99873.31
2022-08-12T00:47:35.332Z,99870.19
2022-08-12T00:50:01.799Z,99868.66
2022-08-12T00:52:28.181Z,99867.16
2022-08-12T00:54:57.882Z,99874.75
2022-08-12T00:57:30.302Z,99861.25
2022-08-12T00:59:59.935Z,99864.75
2022-08-12T01:02:27.949Z,99863.06
2022-08-12T01:05:34.209Z,99860.72
2022-08-12T01:08:19.032Z,99871.03
2022-08-12T01:11:06.516Z,99864.28
2022-08-12T01:13:36.012Z,99865.81
2022-08-12T01:16:05.926Z,99870.50
2022-08-12T01:18:36.889Z,99869.88
2022-08-12T01:21:12.157Z,99867.72
2022-08-12T01:24:30.266Z,99864.53
2022-08-12T01:26:59.340Z,99868.84
2022-08-12T01:29:32.968Z,99862.00
2022-08-12T01:32:05.042Z,99869.41
2022-08-12T01:34:37.518Z,99876.25
2022-08-12T01:37:07.438Z,99879.94
2022-08-12T01:40:30.847Z,99883.81
2022-08-12T01:42:27.968Z,99883.34
2022-08-12T01:44:55.574Z,99874.97
2022-08-12T01:48:05.055Z,99878.69
2022-08-12T01:50:40.493Z,99881.50
2022-08-12T01:53:12.197Z,99878.97
2022-08-12T01:55:45.154Z,99875.63
2022-08-12T01:58:18.507Z,99879.00
2022-08-12T02:00:55.538Z,99876.13
2022-08-12T02:03:59.722Z,99878.66
2022-08-12T02:06:51.929Z,99879.84
2022-08-12T02:09:44.813Z,99877.66
2022-08-12T02:12:39.064Z,99875.66
2022-08-12T02:15:30.243Z,99869.81
2022-08-12T02:18:03.911Z,99869.63
2022-08-12T02:20:53.110Z,99881.16
2022-08-12T02:23:26.459Z,99873.66
2022-08-12T02:25:56.881Z,99883.19
2022-08-12T02:28:24.200Z,99881.00
2022-08-12T02:30:51.002Z,99876.31
2022-08-12T02:33:19.369Z,99882.88
2022-08-12T02:35:46.033Z,99881.03
2022-08-12T02:38:12.649Z,99880.34
2022-08-12T02:40:42.980Z,99883.66
2022-08-12T02:43:21.451Z,99881.84
2022-08-12T02:45:55.110Z,99872.13
2022-08-12T02:48:46.235Z,99876.44
2022-08-12T02:51:17.402Z,99867.91
2022-08-12T02:53:45.215Z,99877.81
2022-08-12T02:56:30.856Z,99871.25
2022-08-12T02:58:58.570Z,99875.41
2022-08-12T03:01:32.162Z,99870.56
2022-08-12T03:04:00.447Z,99871.06
2022-08-12T03:06:32.142Z,99869.91
2022-08-12T03:09:01.818Z,99868.88
2022-08-12T03:11:54.424Z,99864.66
2022-08-12T03:14:21.751Z,99860.81
2022-08-12T03:16:57.395Z,99873.38
2022-08-12T03:19:24.666Z,99869.50
2022-08-12T03:22:09.122Z,99870.47
2022-08-12T03:24:38.838Z,99877.34
2022-08-12T03:27:08.975Z,99881.69
2022-08-12T03:29:43.418Z,99880.72
2022-08-12T03:32:36.401Z,99888.72
2022-08-12T03:35:07.207Z,99885.66
2022-08-12T03:37:36.403Z,99888.47
2022-08-12T03:40:03.573Z,99886.75
2022-08-12T03:42:42.395Z,99885.91
2022-08-12T03:45:52.530Z,99880.56
2022-08-12T03:48:38.800Z,99879.75
2022-08-12T03:51:24.195Z,99880.25
2022-08-12T03:54:11.301Z,99894.84
2022-08-12T03:56:57.775Z,99894.38
2022-08-12T03:59:43.197Z,99885.94
2022-08-12T04:02:14.692Z,99892.94
2022-08-12T04:04:45.074Z,99893.84
2022-08-12T04:07:14.055Z,99889.31
2022-08-12T04:09:43.179Z,99901.16
2022-08-12T04:12:39.509Z,99900.09
2022-08-12T04:15:08.768Z,99901.97
2022-08-12T04:17:36.084Z,99903.00
2022-08-12T04:20:02.812Z,99900.47
2022-08-12T04:22:30.177Z,99899.38
2022-08-12T04:25:01.124Z,99889.09
2022-08-12T04:27:29.960Z,99901.09
2022-08-12T04:30:31.590Z,99897.38
2022-08-12T04:32:44.891Z,99897.88
2022-08-12T04:35:12.257Z,99902.69
2022-08-12T04:37:59.195Z,99911.97
2022-08-12T04:40:28.904Z,99905.38
2022-08-12T04:42:55.884Z,99909.94
2022-08-12T04:45:22.658Z,99917.09
2022-08-12T04:47:49.338Z,99906.56
2022-08-12T04:50:35.170Z,99908.88
2022-08-12T04:53:08.495Z,99914.59
2022-08-12T04:55:37.203Z,99917.78
2022-08-12T04:58:03.668Z,99914.84
2022-08-12T05:00:30.268Z,99922.34
2022-08-12T05:02:56.874Z,99930.34
2022-08-12T05:05:23.928Z,99925.31
2022-08-12T05:07:54.357Z,99914.78
2022-08-12T05:10:33.895Z,99914.44
2022-08-12T05:13:07.267Z,99918.72
2022-08-12T05:15:34.743Z,99927.03
2022-08-12T05:18:19.293Z,99929.63
2022-08-12T05:20:48.245Z,99923.81
2022-08-12T05:23:17.384Z,99928.84
2022-08-12T05:25:46.974Z,99930.75
2022-08-12T05:28:14.308Z,99921.22
2022-08-12T05:30:42.389Z,99929.81
2022-08-12T05:33:09.978Z,99931.69
2022-08-12T05:35:40.087Z,99936.97
2022-08-12T05:38:26.066Z,99939.34
2022-08-12T05:40:52.659Z,99942.75
2022-08-12T05:43:19.076Z,99934.00
2022-08-12T05:45:46.817Z,99935.06
2022-08-12T05:48:13.544Z,99940.41
2022-08-12T05:50:41.411Z,99943.13
2022-08-12T05:53:08.111Z,99933.25
2022-08-12T05:55:35.615Z,99936.31
2022-08-12T05:58:02.989Z,99937.84
2022-08-12T06:00:31.417Z,99941.84
2022-08-12T06:03:02.118Z,99940.03
2022-08-12T06:05:29.749Z,99941.91
2022-08-12T06:08:02.077Z,99947.25
2022-08-12T06:10:31.678Z,99946.63
2022-08-12T06:13:04.412Z,99953.81
2022-08-12T06:15:35.680Z,99951.63
2022-08-12T06:18:11.469Z,99940.91
2022-08-12T06:20:41.383Z,99943.94
2022-08-12T06:23:10.767Z,99941.25
2022-08-12T06:25:37.421Z,99947.59
2022-08-12T06:28:14.618Z,99941.56
2022-08-12T06:30:41.212Z,99937.88
2022-08-12T06:33:21.939Z,99934.47
2022-08-12T06:35:57.765Z,99938.94
2022-08-12T06:38:26.868Z,99937.56
2022-08-12T06:41:16.867Z,99935.84
2022-08-12T06:44:07.188Z,99934.97
2022-08-12T06:46:31.321Z,99934.75
2022-08-12T06:48:58.818Z,99935.69
2022-08-12T06:51:28.073Z,99940.19
2022-08-12T06:53:55.811Z,99933.97
2022-08-12T06:56:30.627Z,99936.25
2022-08-12T06:59:11.123Z,99936.69
2022-08-12T07:01:38.426Z,99937.81
2022-08-12T07:04:26.405Z,99929.31
2022-08-12T07:06:51.401Z,99936.66
2022-08-12T07:10:01.226Z,99927.31
2022-08-12T07:12:04.821Z,99927.63
2022-08-12T07:14:31.588Z,99919.66
2022-08-12T07:17:02.085Z,99927.00
2022-08-12T07:19:45.180Z,99924.03
2022-08-12T07:22:13.967Z,99926.31
2022-08-12T07:24:40.410Z,99922.53
2022-08-12T07:27:06.879Z,99923.28
2022-08-12T07:30:02.525Z,99924.75
2022-08-12T07:32:24.296Z,99927.91
2022-08-12T07:34:50.697Z,99931.03
2022-08-12T07:37:17.770Z,99924.94
2022-08-12T07:39:51.270Z,99925.03
2022-08-12T07:42:28.367Z,99931.59
2022-08-12T07:44:55.767Z,99925.94
2022-08-12T07:47:22.931Z,99926.47
2022-08-12T07:50:05.082Z,99928.88
2022-08-12T07:52:42.638Z,99929.41
2022-08-12T07:55:10.697Z,99937.19
2022-08-12T07:57:54.077Z,99924.22
2022-08-12T08:00:20.883Z,99918.34
2022-08-12T08:02:49.208Z,99920.72
2022-08-12T08:05:16.143Z,99920.63
2022-08-12T08:07:42.848Z,99915.03
2022-08-12T08:10:11.440Z,99912.78
2022-08-12T08:12:53.281Z,99912.22
2022-08-12T08:15:20.991Z,99920.41
2022-08-12T08:17:59.535Z,99914.41
2022-08-12T08:20:30.419Z,99908.41
2022-08-12T08:22:58.805Z,99906.84
2022-08-12T08:25:35.788Z,99901.97
2022-08-12T08:28:09.747Z,99894.53
2022-08-12T08:30:39.623Z,99897.06
2022-08-12T08:33:22.986Z,99894.00
2022-08-12T08:35:55.560Z,99898.19
2022-08-12T08:38:31.880Z,99903.59
2022-08-12T08:42:19.027Z,99903.81
2022-08-12T08:44:05.815Z,99890.53
2022-08-12T08:46:37.531Z,99889.28
2022-08-12T08:49:05.245Z,99893.50
2022-08-12T08:51:31.983Z,99885.00
2022-08-12T08:53:58.433Z,99895.59
2022-08-12T08:56:24.841Z,99894.31
2022-08-12T08:58:51.221Z,99891.59
2022-08-12T09:01:22.283Z,99894.13
2022-08-12T09:05:04.631Z,99880.16
2022-08-12T09:09:23.786Z,99883.09
2022-08-12T09:12:11.733Z,99886.81
2022-08-12T09:14:43.526Z,99880.13
2022-08-12T09:17:13.890Z,99884.66
2022-08-12T09:19:53.658Z,99888.78
2022-08-12T09:22:29.294Z,99887.06
2022-08-12T09:24:56.048Z,99877.25
2022-08-12T09:27:57.543Z,99877.19
2022-08-12T09:30:15.947Z,99864.03
2022-08-12T09:33:04.962Z,99861.56
2022-08-12T09:35:44.266Z,99863.22
2022-08-12T09:38:28.322Z,99856.44
2022-08-12T09:42:08.910Z,99867.03
2022-08-12T09:44:06.153Z,99864.75
2022-08-12T09:46:34.522Z,99860.16
2022-08-12T09:49:04.118Z,99852.97
2022-08-12T09:51:43.565Z,99857.13
2022-08-12T09:54:32.886Z,99865.59
2022-08-12T09:57:03.840Z,99854.44
2022-08-12T10:00:17.785Z,99848.53
2022-08-12T10:02:45.121Z,99845.53
2022-08-12T10:05:22.585Z,99838.84
2022-08-12T10:08:11.239Z,99844.34
2022-08-12T10:11:01.162Z,99847.81
2022-08-12T10:13:43.881Z,99837.97
2022-08-12T10:16:28.569Z,99838.44
2022-08-12T10:19:02.124Z,99837.59
2022-08-12T10:21:41.105Z,99837.75
2022-08-12T10:24:11.421Z,99821.31
2022-08-12T10:26:58.187Z,99809.09
2022-08-12T10:30:37.939Z,99807.84
2022-08-12T10:32:45.396Z,99801.03
2022-08-12T10:35:15.235Z,99806.78
2022-08-12T10:38:35.402Z,99801.88
2022-08-12T10:40:33.125Z,99801.34
2022-08-12T10:43:19.774Z,99799.25
2022-08-12T10:45:48.935Z,99785.78
2022-08-12T10:48:23.078Z,99802.97
2022-08-12T10:51:02.435Z,99794.22
2022-08-12T10:53:44.334Z,99790.09
2022-08-12T10:56:17.064Z,99781.34
2022-08-12T10:58:46.145Z,99778.00
2022-08-12T11:01:49.197Z,99777.94
2022-08-12T11:04:28.234Z,99778.75
2022-08-12T11:07:06.996Z,99777.81
2022-08-12T11:09:59.971Z,99778.19
2022-08-12T11:12:55.162Z,99773.69
2022-08-12T11:15:20.721Z,99770.25
2022-08-12T11:17:52.996Z,99759.75
2022-08-12T11:20:24.025Z,99751.22
2022-08-12T11:22:59.355Z,99755.59
2022-08-12T11:25:55.515Z,99753.91
2022-08-12T11:28:13.986Z,99752.09
2022-08-12T11:30:41.736Z,99744.28
2022-08-12T11:33:12.248Z,99747.72
2022-08-12T11:35:41.488Z,99755.91
2022-08-12T11:38:10.174Z,99739.22
2022-08-12T11:40:37.033Z,99729.88
2022-08-12T11:43:18.912Z,99735.09
2022-08-12T11:45:47.532Z,99726.78
2022-08-12T11:48:15.560Z,99727.88
2022-08-12T11:50:45.416Z,99732.69
2022-08-12T11:53:57.611Z,99725.19
2022-08-12T11:55:58.172Z,99722.66
2022-08-12T11:59:36.000Z,99718.59
2022-08-12T12:03:57.535Z,99707.84
2022-08-12T12:06:24.821Z,99704.44
2022-08-12T12:08:53.935Z,99706.34
2022-08-12T12:11:22.108Z,99703.13
2022-08-12T12:14:07.813Z,99700.25
2022-08-12T12:16:39.626Z,99691.91
2022-08-12T12:19:06.917Z,99700.09
2022-08-12T12:21:46.929Z,99702.22
2022-08-12T12:24:22.040Z,99687.84
2022-08-12T12:26:59.524Z,99702.38
2022-08-12T12:30:18.339Z,99690.41
2022-08-12T12:32:15.185Z,99691.75
2022-08-12T12:35:14.211Z,99679.84
2022-08-12T12:38:05.527Z,99678.84
2022-08-12T12:40:14.946Z,99685.94
2022-08-12T12:42:44.372Z,99670.69
2022-08-12T12:45:26.166Z,99669.34
2022-08-12T12:47:57.782Z,99684.22
2022-08-12T12:50:35.032Z,99666.03
2022-08-12T12:53:02.627Z,99675.78
2022-08-12T12:55:32.654Z,99657.06
2022-08-12T12:58:04.528Z,99675.63
2022-08-12T13:00:32.813Z,99659.78
2022-08-12T13:03:00.021Z,99659.38
2022-08-12T13:05:42.454Z,99655.31
2022-08-12T13:08:28.607Z,99665.56
2022-08-12T13:11:04.566Z,99654.41
2022-08-12T13:14:07.278Z,99651.06
2022-08-12T13:16:23.188Z,99648.66
2022-08-12T13:18:50.801Z,99655.34
2022-08-12T13:21:33.132Z,99645.78
2022-08-12T13:24:09.616Z,99643.06
2022-08-12T13:26:37.764Z,99644.81
2022-08-12T13:29:04.322Z,99637.56
2022-08-12T13:31:30.707Z,99635.41
2022-08-12T13:34:32.464Z,99644.06
2022-08-12T13:36:50.628Z,99642.84
2022-08-12T13:39:21.263Z,99633.91
2022-08-12T13:41:49.570Z,99633.19
2022-08-12T13:44:16.713Z,99627.09
2022-08-12T13:46:43.466Z,99635.56
2022-08-12T13:49:17.297Z,99618.44
2022-08-12T13:51:51.042Z,99623.72
2022-08-12T13:54:19.701Z,99628.47
2022-08-12T13:56:49.792Z,99620.97
2022-08-12T13:59:20.319Z,99619.66
2022-08-12T14:01:51.750Z,99614.03
2022-08-12T14:04:19.258Z,99613.09
2022-08-12T14:06:50.451Z,99609.84
2022-08-12T14:09:18.272Z,99612.97
2022-08-12T14:11:59.136Z,99617.75
2022-08-12T14:14:31.653Z,99602.84
2022-08-12T14:17:05.131Z,99612.81
2022-08-12T14:19:38.062Z,99607.88
2022-08-12T14:22:13.651Z,99608.03
2022-08-12T14:24:42.270Z,99602.41
2022-08-12T14:27:11.847Z,99616.66
2022-08-12T14:30:04.949Z,99612.56
2022-08-12T14:32:34.239Z,99599.91
2022-08-12T14:35:00.675Z,99601.25
2022-08-12T14:37:56.508Z,99591.91
2022-08-12T14:40:18.401Z,99591.59
2022-08-12T14:42:46.923Z,99591.69
2022-08-12T14:45:13.742Z,99587.59
2022-08-12T14:47:47.932Z,99596.13
2022-08-12T14:50:57.336Z,99592.97
2022-08-12T14:59:23.373Z,99583.25
2022-08-12T15:01:52.234Z,99586.81
2022-08-12T15:04:28.542Z,99586.69
2022-08-12T15:06:56.074Z,99579.53
2022-08-12T15:09:29.104Z,99583.06
2022-08-12T15:12:03.755Z,99584.47
2022-08-12T15:14:31.011Z,99588.59
2022-08-12T15:17:00.266Z,99586.84
2022-08-12T15:20:31.033Z,99589.19
2022-08-12T15:22:37.912Z,99580.09
2022-08-12T15:25:07.576Z,99574.47
2022-08-12T15:28:03.815Z,99577.19
2022-08-12T15:30:31.337Z,99575.16
2022-08-12T15:32:58.000Z,99565.59
2022-08-12T15:35:31.309Z,99573.63
2022-08-12T15:38:10.399Z,99575.88
2022-08-12T15:40:46.832Z,99565.38
2022-08-12T15:44:15.670Z,99572.44
2022-08-12T15:46:04.746Z,99571.97
2022-08-12T15:48:34.325Z,99577.66
2022-08-12T15:51:02.152Z,99566.66
2022-08-12T15:53:53.431Z,99565.84
2022-08-12T15:56:29.387Z,99564.28
2022-08-12T15:58:58.756Z,99565.28
2022-08-12T16:01:34.846Z,99559.50
2022-08-12T16:04:03.216Z,99557.50
2022-08-12T16:06:51.012Z,99559.84
2022-08-12T16:09:45.354Z,99563.28
2022-08-12T16:12:08.796Z,99565.28
2022-08-12T16:14:38.625Z,99560.69
2022-08-12T16:17:05.367Z,99557.72
2022-08-12T16:20:02.783Z,99553.81
2022-08-12T16:22:22.637Z,99565.84
2022-08-12T16:24:52.084Z,99553.09
2022-08-12T16:27:19.076Z,99557.25
2022-08-12T16:29:52.885Z,99548.72
2022-08-12T16:32:23.058Z,99556.31
2022-08-12T16:34:54.665Z,99548.50
2022-08-12T16:37:32.398Z,99558.31
2022-08-12T16:40:04.825Z,99552.41
2022-08-12T16:42:38.959Z,99553.38
2022-08-12T16:45:13.704Z,99547.59
2022-08-12T16:47:58.588Z,99550.19
2022-08-12T16:50:31.356Z,99540.66
2022-08-12T16:52:59.672Z,99535.88
2022-08-12T16:55:35.058Z,99540.97
2022-08-12T16:58:18.536Z,99536.00
2022-08-12T17:00:54.996Z,99523.47
2022-08-12T17:03:28.867Z,99527.84
2022-08-12T17:05:55.977Z,99517.97
2022-08-12T17:08:29.276Z,99523.03
2022-08-12T17:10:56.252Z,99539.53
2022-08-12T17:13:26.027Z,99532.47
2022-08-12T17:16:04.891Z,99532.38
2022-08-12T17:18:43.461Z,99523.72
2022-08-12T17:21:20.289Z,99542.72
2022-08-12T17:24:15.252Z,99532.00
2022-08-12T17:26:45.068Z,99534.25
2022-08-12T17:29:32.305Z,99540.63
2022-08-12T17:32:08.568Z,99540.03
2022-08-12T17:34:54.607Z,99547.31
2022-08-12T17:37:21.445Z,99538.63
2022-08-12T17:40:15.778Z,99533.41
2022-08-12T17:42:35.561Z,99534.84
2022-08-12T17:45:17.104Z,99535.91
2022-08-12T17:47:45.466Z,99541.91
2022-08-12T17:50:28.700Z,99542.16
2022-08-12T17:52:58.013Z,99545.09
2022-08-12T17:55:31.629Z,99540.13
2022-08-12T17:58:13.885Z,99546.88
2022-08-12T18:00:44.000Z,99547.94
2022-08-12T18:03:13.496Z,99546.72
2022-08-12T18:06:06.139Z,99551.22
2022-08-12T18:08:35.577Z,99558.28
2022-08-12T18:11:21.378Z,99557.56
2022-08-12T18:14:07.336Z,99566.16
2022-08-12T18:16:34.952Z,99569.31
2022-08-12T18:19:02.427Z,99570.38
2022-08-12T18:22:00.956Z,99572.75
2022-08-12T18:24:22.195Z,99576.16
2022-08-12T18:26:53.505Z,99578.25
2022-08-12T18:29:20.748Z,99572.25
2022-08-12T18:31:59.754Z,99574.34
2022-08-12T18:34:32.246Z,99575.03
2022-08-12T18:36:59.622Z,99583.88
2022-08-12T18:39:57.871Z,99585.16
2022-08-12T18:42:26.176Z,99584.78
2022-08-12T18:44:58.033Z,99579.00
2022-08-12T18:47:26.839Z,99585.81
2022-08-12T18:50:15.083Z,99583.78
2022-08-12T18:52:48.466Z,99586.66
2022-08-12T18:55:15.916Z,99591.38
2022-08-12T18:58:05.895Z,99581.13
2022-08-12T19:00:33.414Z,99589.03
2022-08-12T19:03:02.265Z,99593.84
2022-08-12T19:05:52.684Z,99594.22
2022-08-12T19:08:15.199Z,99604.53
2022-08-12T19:10:42.796Z,99606.06
2022-08-12T19:13:35.560Z,99597.75
2022-08-12T19:16:09.543Z,99603.63
2022-08-12T19:18:40.425Z,99603.31
2022-08-12T19:21:11.893Z,99596.06
2022-08-12T19:23:42.964Z,99604.69
2022-08-12T19:26:12.539Z,99602.78
2022-08-12T19:28:40.558Z,99601.41
2022-08-12T19:31:45.132Z,99611.81
2022-08-12T19:34:56.480Z,99602.06
2022-08-12T19:37:27.221Z,99606.31
2022-08-12T19:40:09.791Z,99606.75
2022-08-12T19:42:53.617Z,99602.41
2022-08-12T19:45:20.851Z,99599.97
2022-08-12T19:47:48.780Z,99607.88
2022-08-12T19:50:20.181Z,99614.59
2022-08-12T19:52:47.276Z,99608.34
2022-08-12T19:55:21.583Z,99602.75
2022-08-12T19:58:03.296Z,99605.03
2022-08-12T20:00:34.822Z,99609.22
2022-08-12T20:03:04.256Z,99612.16
2022-08-12T20:06:05.803Z,99612.78
2022-08-12T20:08:34.039Z,99615.66
2022-08-12T20:12:14.107Z,99615.91
2022-08-12T20:14:00.456Z,99617.78
2022-08-12T20:16:51.040Z,99612.59
2022-08-12T20:19:15.121Z,99620.91
2022-08-12T20:21:43.400Z,99622.59
2022-08-12T20:24:12.211Z,99625.72
2022-08-12T20:26:41.997Z,99631.72
2022-08-12T20:29:10.155Z,99633.22
2022-08-12T20:31:36.590Z,99628.84
2022-08-12T20:34:03.768Z,99633.84
2022-08-12T20:36:41.612Z,99634.44
2022-08-12T20:39:37.355Z,99637.97
2022-08-12T20:42:04.407Z,99644.34
2022-08-12T20:44:36.323Z,99641.25
2022-08-12T20:47:18.502Z,99642.69
2022-08-12T20:49:55.851Z,99644.34
2022-08-12T20:52:30.122Z,99645.59
2022-08-12T20:54:57.647Z,99640.34
2022-08-12T20:57:24.325Z,99646.56
2022-08-12T20:59:52.648Z,99644.91
2022-08-12T21:02:24.421Z,99652.56
2022-08-12T21:05:19.935Z,99644.03
2022-08-12T21:07:51.559Z,99648.50
2022-08-12T21:10:21.022Z,99650.78
2022-08-12T21:12:47.890Z,99646.41
2022-08-12T21:15:22.878Z,99655.91
2022-08-12T21:18:12.003Z,99654.84
2022-08-12T21:20:52.707Z,99655.25
2022-08-12T21:23:21.273Z,99648.81
2022-08-12T21:25:49.156Z,99653.56
2022-08-12T21:28:20.338Z,99651.53
2022-08-12T21:31:11.105Z,99654.38
2022-08-12T21:33:58.755Z,99661.84
2022-08-12T21:36:22.609Z,99655.09
2022-08-12T21:38:51.017Z,99659.38
2022-08-12T21:41:20.156Z,99663.88
2022-08-12T21:43:52.381Z,99662.22
2022-08-12T21:46:34.530Z,99671.69
2022-08-12T21:49:04.878Z,99673.50
2022-08-12T21:51:49.382Z,99672.84
2022-08-12T21:54:22.742Z,99681.75
2022-08-12T21:56:55.563Z,99676.84
2022-08-12T21:59:22.039Z,99669.28
2022-08-12T22:01:49.598Z,99670.25
2022-08-12T22:04:36.246Z,99667.63
2022-08-12T22:07:03.219Z,99682.94
2022-08-12T22:09:30.340Z,99681.28
2022-08-12T22:12:48.916Z,99677.50
2022-08-12T22:15:21.988Z,99687.56
2022-08-12T22:17:50.541Z,99676.59
2022-08-12T22:20:22.282Z,99679.78
2022-08-12T22:22:53.750Z,99682.25
2022-08-12T22:25:24.220Z,99690.09
2022-08-12T22:28:12.399Z,99693.13
2022-08-12T22:30:57.325Z,99683.50
2022-08-12T22:33:24.788Z,99685.53
2022-08-12T22:35:59.142Z,99690.16
2022-08-12T22:38:29.155Z,99695.91
2022-08-12T22:41:00.980Z,99699.06
2022-08-12T22:44:00.522Z,99696.09
2022-08-12T22:46:52.545Z,99697.22
2022-08-12T22:49:36.563Z,99694.25
2022-08-12T22:52:13.034Z,99686.56
2022-08-12T22:54:46.406Z,99686.47
2022-08-12T22:57:53.576Z,99682.94
2022-08-12T23:00:23.889Z,99694.09
2022-08-12T23:02:51.776Z,99685.75
2022-08-12T23:05:23.434Z,99687.34
2022-08-12T23:08:13.886Z,99689.56
2022-08-12T23:10:45.081Z,99684.66
2022-08-12T23:13:30.143Z,99679.28
2022-08-12T23:16:10.151Z,99687.59
2022-08-12T23:18:54.215Z,99689.09
2022-08-12T23:21:23.743Z,99680.66
2022-08-12T23:24:09.064Z,99688.34
2022-08-12T23:26:55.151Z,99685.44
2022-08-12T23:29:29.941Z,99689.69
2022-08-12T23:32:10.104Z,99694.44
2022-08-12T23:34:37.359Z,99688.13
2022-08-12T23:37:05.813Z,99692.94
2022-08-12T23:40:06.510Z,99703.59
2022-08-12T23:42:19.987Z,99699.16
2022-08-12T23:44:48.537Z,99699.97
2022-08-12T23:47:21.105Z,99710.50
2022-08-12T23:49:57.959Z,99704.91
2022-08-12T23:52:27.677Z,99703.81
2022-08-12T23:55:24.967Z,99712.84
2022-08-12T23:58:17.773Z,99706.06
